createdAt,value
2023-10-02T00:01:59.700Z,101009.80
2023-10-02T00:04:28.072Z,101009.64
2023-10-02T00:07:08.009Z,101012.98
2023-10-02T00:09:37.126Z,101015.08
2023-10-02T00:12:13.787Z,101015.35
2023-10-02T00:14:43.456Z,101016.04
2023-10-02T00:17:15.956Z,101013.19
2023-10-02T00:19:58.441Z,101008.72
2023-10-02T00:22:45.142Z,101009.30
2023-10-02T00:28:31.793Z,101008.50
2023-10-02T00:30:59.895Z,101013.05
2023-10-02T00:33:29.357Z,101010.52
2023-10-02T00:35:57.904Z,101011.73
2023-10-02T00:38:25.990Z,101007.91
2023-10-02T00:40:53.815Z,101004.93
2023-10-02T00:43:37.082Z,101005.66
2023-10-02T00:46:05.200Z,101006.13
2023-10-02T00:48:34.946Z,101008.09
2023-10-02T00:51:08.021Z,101010.52
2023-10-02T00:53:57.796Z,101004.11
2023-10-02T00:56:26.225Z,101007.80
2023-10-02T00:58:58.869Z,101002.68
2023-10-02T01:01:27.920Z,101005.52
2023-10-02T01:04:13.872Z,101002.01
2023-10-02T01:07:06.867Z,101004.88
2023-10-02T01:09:35.695Z,101005.40
2023-10-02T01:12:04.116Z,101007.05
2023-10-02T01:15:01.303Z,101008.16
2023-10-02T01:17:30.216Z,101011.84
2023-10-02T01:20:02.756Z,101016.39
2023-10-02T01:22:44.695Z,101019.38
2023-10-02T01:25:18.215Z,101018.27
2023-10-02T01:27:49.304Z,101018.82
2023-10-02T01:30:25.873Z,101020.65
2023-10-02T01:33:13.501Z,101022.34
2023-10-02T01:35:50.168Z,101018.30
2023-10-02T01:38:39.004Z,101017.05
2023-10-02T01:41:09.957Z,101014.06
2023-10-02T01:43:44.568Z,101018.93
2023-10-02T01:46:19.859Z,101020.20
2023-10-02T01:48:54.064Z,101021.38
2023-10-02T01:51:29.636Z,101017.52
2023-10-02T01:54:00.251Z,101015.65
2023-10-02T01:56:30.950Z,101016.92
2023-10-02T01:59:11.383Z,101017.89
2023-10-02T02:01:58.744Z,101017.69
2023-10-02T02:04:29.752Z,101019.47
2023-10-02T02:06:59.602Z,101020.84
2023-10-02T02:09:32.805Z,101021.05
2023-10-02T02:12:09.544Z,101021.58
2023-10-02T02:15:04.108Z,101019.22
2023-10-02T02:17:35.414Z,101022.54
2023-10-02T02:20:12.788Z,101025.15
2023-10-02T02:22:41.031Z,101029.45
2023-10-02T02:25:09.318Z,101033.83
2023-10-02T02:27:38.055Z,101030.48
2023-10-02T02:30:11.776Z,101030.38
2023-10-02T02:32:46.373Z,101034.83
2023-10-02T02:35:19.254Z,101036.17
2023-10-02T02:37:47.208Z,101038.71
2023-10-02T02:40:24.076Z,101041.94
2023-10-02T02:42:55.771Z,101036.28
2023-10-02T02:45:32.379Z,101042.72
2023-10-02T02:48:07.500Z,101042.76
2023-10-02T02:50:43.666Z,101045.04
2023-10-02T02:53:24.554Z,101048.92
2023-10-02T02:56:24.054Z,101051.44
2023-10-02T02:58:57.596Z,101053.14
2023-10-02T03:01:26.657Z,101054.97
2023-10-02T03:03:57.783Z,101051.30
2023-10-02T03:06:26.163Z,101047.98
2023-10-02T03:08:54.580Z,101039.21
2023-10-02T03:11:24.531Z,101037.23
2023-10-02T03:13:52.806Z,101036.51
2023-10-02T03:16:30.807Z,101033.98
2023-10-02T03:19:04.685Z,101031.46
2023-10-02T03:21:32.809Z,101035.16
2023-10-02T03:24:01.523Z,101034.05
2023-10-02T03:26:35.410Z,101034.98
2023-10-02T03:29:12.797Z,101041.45
2023-10-02T03:31:52.084Z,101041.07
2023-10-02T03:34:32.375Z,101040.73
2023-10-02T03:37:09.923Z,101039.27
2023-10-02T03:39:58.512Z,101036.27
2023-10-02T03:42:37.650Z,101038.75
2023-10-02T03:45:06.637Z,101038.42
2023-10-02T03:47:35.682Z,101039.57
2023-10-02T03:50:11.694Z,101044.10
2023-10-02T03:52:42.550Z,101041.81
2023-10-02T03:55:19.412Z,101042.70
2023-10-02T03:57:52.371Z,101042.23
2023-10-02T04:00:44.511Z,101041.63
2023-10-02T04:03:13.015Z,101033.69
2023-10-02T04:05:44.794Z,101034.13
2023-10-02T04:08:23.653Z,101031.12
2023-10-02T04:10:57.959Z,101023.86
2023-10-02T04:13:34.040Z,101028.45
2023-10-02T04:16:22.942Z,101033.75
2023-10-02T04:19:00.256Z,101032.52
2023-10-02T04:21:34.550Z,101029.18
2023-10-02T04:24:06.662Z,101030.50
2023-10-02T04:26:35.157Z,101031.05
2023-10-02T04:29:16.720Z,101036.77
2023-10-02T04:31:46.526Z,101041.10
2023-10-02T04:34:31.111Z,101037.64
2023-10-02T04:36:59.261Z,101040.38
2023-10-02T04:39:32.811Z,101039.79
2023-10-02T04:42:21.138Z,101038.23
2023-10-02T04:44:59.576Z,101041.24
2023-10-02T04:47:29.032Z,101045.89
2023-10-02T04:50:05.652Z,101057.47
2023-10-02T04:52:58.486Z,101059.61
2023-10-02T04:55:29.503Z,101060.60
2023-10-02T04:58:05.896Z,101060.08
2023-10-02T05:00:34.264Z,101059.00
2023-10-02T05:03:20.232Z,101058.19
2023-10-02T05:05:50.891Z,101063.62
2023-10-02T05:08:20.750Z,101060.26
2023-10-02T05:11:06.058Z,101053.90
2023-10-02T05:13:54.760Z,101049.29
2023-10-02T05:16:40.411Z,101045.71
2023-10-02T05:19:10.171Z,101045.42
2023-10-02T05:21:50.793Z,101046.11
2023-10-02T05:24:19.965Z,101047.84
2023-10-02T05:26:48.739Z,101051.63
2023-10-02T05:29:38.214Z,101058.45
2023-10-02T05:32:17.419Z,101063.17
2023-10-02T05:35:00.156Z,101068.06
2023-10-02T05:37:35.275Z,101071.66
2023-10-02T05:40:35.740Z,101078.08
2023-10-02T05:43:06.601Z,101080.35
2023-10-02T05:45:40.230Z,101080.33
2023-10-02T05:48:10.086Z,101085.73
2023-10-02T05:50:42.033Z,101086.61
2023-10-02T05:53:13.262Z,101086.81
2023-10-02T05:56:00.099Z,101089.07
2023-10-02T05:58:34.151Z,101086.59
2023-10-02T06:01:08.251Z,101088.55
2023-10-02T06:03:38.643Z,101089.14
2023-10-02T06:06:19.808Z,101089.67
2023-10-02T06:09:03.110Z,101091.20
2023-10-02T06:11:35.371Z,101094.14
2023-10-02T06:14:11.549Z,101093.21
2023-10-02T06:16:42.568Z,101090.40
2023-10-02T06:19:15.278Z,101090.05
2023-10-02T06:22:01.938Z,101093.88
2023-10-02T06:24:30.117Z,101094.15
2023-10-02T06:26:59.278Z,101094.89
2023-10-02T06:29:41.753Z,101099.97
2023-10-02T06:32:23.942Z,101100.06
2023-10-02T06:34:59.440Z,101102.06
2023-10-02T06:37:38.146Z,101101.16
2023-10-02T06:40:16.430Z,101104.27
2023-10-02T06:42:50.962Z,101107.81
2023-10-02T06:45:22.088Z,101100.73
2023-10-02T06:47:50.324Z,101103.13
2023-10-02T06:50:37.337Z,101100.48
2023-10-02T06:53:07.911Z,101100.03
2023-10-02T06:55:36.177Z,101101.12
2023-10-02T06:58:04.286Z,101101.02
2023-10-02T07:00:52.142Z,101104.23
2023-10-02T07:03:20.108Z,101099.33
2023-10-02T07:05:51.917Z,101091.52
2023-10-02T07:08:22.631Z,101097.50
2023-10-02T07:10:51.831Z,101100.59
2023-10-02T07:13:21.420Z,101103.66
2023-10-02T07:16:01.561Z,101103.45
2023-10-02T07:18:46.732Z,101099.27
2023-10-02T07:21:18.303Z,101098.46
2023-10-02T07:23:46.664Z,101096.02
2023-10-02T07:26:21.186Z,101094.69
2023-10-02T07:28:52.791Z,101097.66
2023-10-02T07:31:22.743Z,101099.27
2023-10-02T07:33:56.913Z,101103.02
2023-10-02T07:36:28.470Z,101103.61
2023-10-02T07:38:56.786Z,101102.54
2023-10-02T07:41:29.669Z,101096.92
2023-10-02T07:44:09.083Z,101093.68
2023-10-02T07:46:38.249Z,101096.13
2023-10-02T07:49:07.254Z,101098.51
2023-10-02T07:51:38.119Z,101097.05
2023-10-02T07:54:09.268Z,101097.23
2023-10-02T07:56:37.486Z,101096.73
2023-10-02T07:59:09.090Z,101096.34
2023-10-02T08:01:37.552Z,101094.95
2023-10-02T08:04:07.426Z,101093.63
2023-10-02T08:06:38.346Z,101091.17
2023-10-02T08:09:29.936Z,101090.96
2023-10-02T08:11:59.758Z,101091.96
2023-10-02T08:14:39.531Z,101091.30
2023-10-02T08:17:29.118Z,101096.38
2023-10-02T08:20:00.480Z,101101.00
2023-10-02T08:22:45.734Z,101100.40
2023-10-02T08:25:15.820Z,101103.81
2023-10-02T08:27:46.029Z,101101.95
2023-10-02T08:30:30.084Z,101101.73
2023-10-02T08:33:09.979Z,101107.65
2023-10-02T08:35:47.384Z,101106.92
2023-10-02T08:38:25.818Z,101106.86
2023-10-02T08:40:59.304Z,101106.48
2023-10-02T08:43:43.270Z,101110.50
2023-10-02T08:46:23.181Z,101113.33
2023-10-02T08:48:58.457Z,101113.16
2023-10-02T08:51:37.474Z,101117.15
2023-10-02T08:54:07.372Z,101112.05
2023-10-02T08:56:46.057Z,101114.33
2023-10-02T08:59:28.597Z,101111.45
2023-10-02T09:02:10.073Z,101114.35
2023-10-02T09:04:38.556Z,101111.73
2023-10-02T09:07:22.297Z,101113.23
2023-10-02T09:10:05.874Z,101113.05
2023-10-02T09:12:52.696Z,101115.67
2023-10-02T09:15:32.754Z,101113.66
2023-10-02T09:18:18.794Z,101112.80
2023-10-02T09:21:14.069Z,101113.33
2023-10-02T09:23:51.289Z,101114.64
2023-10-02T09:26:34.155Z,101112.77
2023-10-02T09:29:06.279Z,101109.15
2023-10-02T09:31:36.204Z,101108.02
2023-10-02T09:34:18.699Z,101103.63
2023-10-02T09:37:48.828Z,101099.25
2023-10-02T09:40:07.563Z,101099.75
2023-10-02T09:42:37.744Z,101099.86
2023-10-02T09:45:10.750Z,101097.59
2023-10-02T09:47:51.284Z,101097.41
2023-10-02T09:50:31.478Z,101093.87
2023-10-02T09:53:03.685Z,101096.20
2023-10-02T09:55:49.020Z,101097.30
2023-10-02T09:58:29.868Z,101089.69
2023-10-02T10:01:28.096Z,101093.36
2023-10-02T10:03:58.137Z,101094.64
2023-10-02T10:06:29.772Z,101090.68
2023-10-02T10:09:16.609Z,101094.70
2023-10-02T10:11:44.538Z,101093.42
2023-10-02T10:14:46.270Z,101090.88
2023-10-02T10:17:23.381Z,101091.95
2023-10-02T10:20:10.916Z,101089.93
2023-10-02T10:22:51.376Z,101095.61
2023-10-02T10:25:22.589Z,101095.07
2023-10-02T10:28:06.031Z,101090.88
2023-10-02T10:30:40.402Z,101092.85
2023-10-02T10:33:11.805Z,101083.77
2023-10-02T10:35:53.293Z,101084.13
2023-10-02T10:38:30.730Z,101085.01
2023-10-02T10:41:11.468Z,101079.52
2023-10-02T10:43:57.363Z,101077.27
2023-10-02T10:46:29.163Z,101071.91
2023-10-02T10:49:09.613Z,101063.64
2023-10-02T10:51:40.061Z,101060.40
2023-10-02T10:54:57.148Z,101060.13
2023-10-02T10:57:27.115Z,101058.66
2023-10-02T11:00:27.390Z,101061.21
2023-10-02T11:02:59.216Z,101061.95
2023-10-02T11:05:28.053Z,101063.88
2023-10-02T11:08:00.653Z,101061.33
2023-10-02T11:10:32.328Z,101062.13
2023-10-02T11:13:12.822Z,101065.84
2023-10-02T11:15:46.753Z,101064.55
2023-10-02T11:18:24.963Z,101065.91
2023-10-02T11:21:01.684Z,101069.05
2023-10-02T11:23:40.231Z,101055.34
2023-10-02T11:26:15.121Z,101053.32
2023-10-02T11:28:56.361Z,101051.45
2023-10-02T11:31:45.376Z,101046.27
2023-10-02T11:36:54.037Z,101038.66
2023-10-02T11:45:50.326Z,101036.60
2023-10-02T11:48:18.496Z,101038.39
2023-10-02T11:50:48.250Z,101042.77
2023-10-02T11:53:16.903Z,101032.89
2023-10-02T11:55:45.144Z,101036.91
2023-10-02T11:58:15.957Z,101033.16
2023-10-02T12:00:46.533Z,101025.11
2023-10-02T12:03:17.544Z,101026.63
2023-10-02T12:05:47.770Z,101028.90
2023-10-02T12:08:21.912Z,101026.10
2023-10-02T12:10:55.463Z,101027.04
2023-10-02T12:13:23.873Z,101023.77
2023-10-02T12:15:53.810Z,101022.75
2023-10-02T12:18:22.864Z,101020.98
2023-10-02T12:20:50.981Z,101015.65
2023-10-02T12:23:20.756Z,101013.65
2023-10-02T12:25:49.690Z,101020.05
2023-10-02T12:28:20.410Z,101012.65
2023-10-02T12:30:50.123Z,101008.69
2023-10-02T12:33:33.587Z,101006.83
2023-10-02T12:36:21.486Z,101003.86
2023-10-02T12:38:52.003Z,101002.02
2023-10-02T12:41:29.102Z,100996.53
2023-10-02T12:43:57.961Z,100985.93
2023-10-02T12:46:32.968Z,100980.52
2023-10-02T12:49:02.580Z,100976.92
2023-10-02T12:51:32.572Z,100972.48
2023-10-02T12:54:00.504Z,100980.80
2023-10-02T12:56:28.879Z,100980.41
2023-10-02T12:58:57.323Z,100978.45
2023-10-02T13:01:28.706Z,100971.23
2023-10-02T13:04:00.945Z,100966.77
2023-10-02T13:06:31.083Z,100964.55
2023-10-02T13:09:25.767Z,100961.96
2023-10-02T13:11:56.720Z,100961.44
2023-10-02T13:14:24.855Z,100964.45
2023-10-02T13:16:53.930Z,100960.10
2023-10-02T13:19:25.136Z,100958.40
2023-10-02T13:21:55.162Z,100960.78
2023-10-02T13:24:25.680Z,100963.72
2023-10-02T13:26:55.076Z,100965.54
2023-10-02T13:29:25.641Z,100956.44
2023-10-02T13:31:54.103Z,100955.84
2023-10-02T13:34:22.534Z,100948.64
2023-10-02T13:36:50.775Z,100948.06
2023-10-02T13:39:19.708Z,100943.34
2023-10-02T13:41:48.544Z,100951.35
2023-10-02T13:44:19.049Z,100944.17
2023-10-02T13:46:50.211Z,100942.71
2023-10-02T13:49:22.803Z,100942.80
2023-10-02T13:51:52.337Z,100938.06
2023-10-02T13:54:21.456Z,100928.60
2023-10-02T13:56:54.168Z,100933.23
2023-10-02T13:59:22.791Z,100929.52
2023-10-02T14:01:51.030Z,100923.77
2023-10-02T14:04:20.672Z,100921.46
2023-10-02T14:06:50.344Z,100923.70
2023-10-02T14:09:22.138Z,100917.03
2023-10-02T14:11:52.477Z,100913.99
2023-10-02T14:14:21.940Z,100916.74
2023-10-02T14:16:53.712Z,100921.02
2023-10-02T14:19:23.538Z,100917.65
2023-10-02T14:21:53.063Z,100916.23
2023-10-02T14:24:21.240Z,100913.41
2023-10-02T14:26:51.707Z,100914.31
2023-10-02T14:29:20.297Z,100908.73
2023-10-02T14:31:48.856Z,100906.93
2023-10-02T14:34:17.092Z,100906.05
2023-10-02T14:36:45.446Z,100903.67
2023-10-02T14:39:16.942Z,100905.23
2023-10-02T14:41:45.183Z,100904.08
2023-10-02T14:44:16.224Z,100903.44
2023-10-02T14:46:45.004Z,100903.04
2023-10-02T14:49:13.046Z,100901.01
2023-10-02T14:51:41.609Z,100901.87
2023-10-02T14:54:09.595Z,100902.88
2023-10-02T14:56:38.810Z,100901.48
2023-10-02T14:59:07.746Z,100900.40
2023-10-02T15:01:36.866Z,100904.33
2023-10-02T15:04:05.182Z,100904.81
2023-10-02T15:06:34.477Z,100902.95
2023-10-02T15:09:04.490Z,100894.43
2023-10-02T15:11:37.602Z,100895.92
2023-10-02T15:14:05.893Z,100903.90
2023-10-02T15:16:38.170Z,100900.16
2023-10-02T15:19:07.519Z,100901.30
2023-10-02T15:21:36.562Z,100898.18
2023-10-02T15:24:05.393Z,100901.66
2023-10-02T15:26:34.240Z,100903.94
2023-10-02T15:29:05.434Z,100901.20
2023-10-02T15:31:33.719Z,100906.50
2023-10-02T15:34:04.120Z,100901.89
2023-10-02T15:36:32.177Z,100904.23
2023-10-02T15:39:04.111Z,100905.85
2023-10-02T15:41:33.742Z,100905.77
2023-10-02T15:52:37.440Z,100912.77
2023-10-02T15:55:11.590Z,100915.30
2023-10-02T15:57:41.565Z,100911.58
2023-10-02T16:00:14.518Z,100917.95
2023-10-02T16:02:46.969Z,100916.20
2023-10-02T16:05:14.992Z,100917.20
2023-10-02T16:07:44.052Z,100916.48
2023-10-02T16:10:14.680Z,100915.73
2023-10-02T16:12:46.995Z,100917.69
2023-10-02T16:15:16.769Z,100917.33
2023-10-02T16:17:49.374Z,100917.52
2023-10-02T16:20:22.933Z,100918.20
2023-10-02T16:22:55.248Z,100914.40
2023-10-02T16:25:23.554Z,100917.65
2023-10-02T16:27:53.720Z,100917.14
2023-10-02T16:30:28.158Z,100913.95
2023-10-02T16:32:56.818Z,100911.06
2023-10-02T16:35:32.971Z,100911.01
2023-10-02T16:38:05.208Z,100908.25
2023-10-02T16:40:34.700Z,100910.18
2023-10-02T16:43:05.800Z,100911.14
2023-10-02T16:45:34.577Z,100910.17
2023-10-02T16:48:06.953Z,100908.63
2023-10-02T16:50:36.747Z,100909.28
2023-10-02T16:53:04.932Z,100911.49
2023-10-02T16:55:33.107Z,100911.58
2023-10-02T16:58:01.952Z,100908.45
2023-10-02T17:00:29.978Z,100906.91
2023-10-02T17:02:59.167Z,100903.84
2023-10-02T17:05:29.531Z,100902.71
2023-10-02T17:07:59.648Z,100904.92
2023-10-02T17:10:27.676Z,100901.44
2023-10-02T17:13:01.132Z,100900.55
2023-10-02T17:15:34.535Z,100898.98
2023-10-02T17:18:03.011Z,100900.41
2023-10-02T17:20:31.063Z,100896.41
2023-10-02T17:23:02.382Z,100897.85
2023-10-02T17:25:30.794Z,100897.95
2023-10-02T17:28:02.564Z,100899.54
2023-10-02T17:30:33.275Z,100901.21
2023-10-02T17:33:03.236Z,100900.55
2023-10-02T17:35:31.617Z,100902.91
2023-10-02T17:38:00.574Z,100896.98
2023-10-02T17:40:28.616Z,100897.77
2023-10-02T17:42:56.967Z,100897.80
2023-10-02T17:45:25.375Z,100900.02
2023-10-02T17:47:53.514Z,100897.36
2023-10-02T17:50:22.740Z,100896.92
2023-10-02T17:52:50.731Z,100896.75
2023-10-02T17:55:18.847Z,100894.45
2023-10-02T17:57:48.707Z,100888.51
2023-10-02T18:00:19.303Z,100894.61
2023-10-02T18:02:48.760Z,100890.45
2023-10-02T18:05:18.070Z,100891.69
2023-10-02T18:07:46.546Z,100888.46
2023-10-02T18:10:16.400Z,100888.36
2023-10-02T18:12:44.700Z,100888.31
2023-10-02T18:15:15.934Z,100888.56
2023-10-02T18:17:45.279Z,100892.45
2023-10-02T18:20:14.138Z,100887.72
2023-10-02T18:22:45.142Z,100883.98
2023-10-02T18:25:13.251Z,100882.03
2023-10-02T18:27:41.186Z,100881.50
2023-10-02T18:30:10.758Z,100883.92
2023-10-02T18:32:39.398Z,100890.36
2023-10-02T18:35:11.027Z,100890.89
2023-10-02T18:37:39.527Z,100893.45
2023-10-02T18:40:10.011Z,100892.85
2023-10-02T18:42:38.874Z,100890.95
2023-10-02T18:45:07.776Z,100889.55
2023-10-02T18:47:36.311Z,100892.63
2023-10-02T18:50:07.404Z,100893.73
2023-10-02T18:52:38.416Z,100893.69
2023-10-02T18:55:08.917Z,100889.94
2023-10-02T18:57:40.034Z,100890.34
2023-10-02T19:00:12.724Z,100889.61
2023-10-02T19:02:41.010Z,100889.56
2023-10-02T19:05:09.687Z,100883.61
2023-10-02T19:07:39.120Z,100884.54
2023-10-02T19:10:07.866Z,100884.39
2023-10-02T19:12:36.010Z,100882.69
2023-10-02T19:15:04.773Z,100884.30
2023-10-02T19:17:33.896Z,100885.50
2023-10-02T19:20:06.812Z,100877.79
2023-10-02T19:22:36.842Z,100879.34
2023-10-02T19:25:05.401Z,100874.85
2023-10-02T19:27:33.490Z,100869.80
2023-10-02T19:30:01.284Z,100869.84
2023-10-02T19:32:29.701Z,100864.36
2023-10-02T19:34:57.639Z,100863.96
2023-10-02T19:37:25.674Z,100867.31
2023-10-02T19:39:54.748Z,100861.92
2023-10-02T19:42:22.718Z,100859.79
2023-10-02T19:44:50.723Z,100859.41
2023-10-02T19:47:18.622Z,100864.02
2023-10-02T19:49:46.928Z,100860.88
2023-10-02T19:52:14.920Z,100859.79
2023-10-02T19:54:44.185Z,100861.21
2023-10-02T19:57:12.210Z,100860.09
2023-10-02T19:59:40.229Z,100854.64
2023-10-02T20:02:08.251Z,100857.88
2023-10-02T20:04:37.222Z,100853.61
2023-10-02T20:07:05.124Z,100849.83
2023-10-02T20:09:34.809Z,100849.26
2023-10-02T20:12:02.795Z,100851.11
2023-10-02T20:14:30.837Z,100851.17
2023-10-02T20:16:59.208Z,100849.83
2023-10-02T20:19:28.147Z,100849.48
2023-10-02T20:21:56.079Z,100849.05
2023-10-02T20:24:23.977Z,100852.35
2023-10-02T20:26:52.231Z,100851.05
2023-10-02T20:29:20.377Z,100851.09
2023-10-02T20:31:49.989Z,100853.14
2023-10-02T20:34:30.719Z,100845.39
2023-10-02T20:37:05.590Z,100843.84
2023-10-02T20:39:33.590Z,100842.21
2023-10-02T20:42:02.385Z,100837.42
2023-10-02T20:44:33.032Z,100837.77
2023-10-02T20:47:12.273Z,100835.32
2023-10-02T20:49:44.314Z,100836.63
2023-10-02T20:52:12.762Z,100837.05
2023-10-02T20:54:40.645Z,100832.99
2023-10-02T20:57:09.406Z,100829.95
2023-10-02T20:59:38.081Z,100828.77
2023-10-02T21:02:06.137Z,100827.55
2023-10-02T21:04:34.502Z,100832.31
2023-10-02T21:07:02.511Z,100833.22
2023-10-02T21:09:31.023Z,100829.81
2023-10-02T21:11:58.817Z,100826.21
2023-10-02T21:14:26.749Z,100824.95
2023-10-02T21:16:54.596Z,100825.30
2023-10-02T21:19:22.451Z,100827.31
2023-10-02T21:21:53.292Z,100824.52
2023-10-02T21:24:24.664Z,100821.98
2023-10-02T21:26:52.692Z,100820.73
2023-10-02T21:29:20.639Z,100823.44
2023-10-02T21:31:48.445Z,100819.84
2023-10-02T21:34:17.030Z,100815.48
2023-10-02T21:36:44.946Z,100816.92
2023-10-02T21:39:15.695Z,100813.75
2023-10-02T21:41:45.778Z,100812.02
2023-10-02T21:44:13.804Z,100811.58
2023-10-02T21:46:41.795Z,100810.00
2023-10-02T21:49:09.619Z,100807.95
2023-10-02T21:51:37.613Z,100808.54
2023-10-02T21:54:06.962Z,100803.50
2023-10-02T21:56:36.235Z,100802.89
2023-10-02T21:59:04.701Z,100798.70
2023-10-02T22:01:33.604Z,100801.35
2023-10-02T22:04:02.274Z,100799.90
2023-10-02T22:06:30.830Z,100799.06
2023-10-02T22:08:58.993Z,100798.21
2023-10-02T22:11:27.073Z,100800.39
2023-10-02T22:13:54.963Z,100800.79
2023-10-02T22:16:28.107Z,100797.28
2023-10-02T22:18:55.910Z,100794.16
2023-10-02T22:21:25.658Z,100795.52
2023-10-02T22:23:54.348Z,100789.62
2023-10-02T22:26:22.306Z,100786.70
2023-10-02T22:28:50.343Z,100791.93
2023-10-02T22:31:18.914Z,100788.23
2023-10-02T22:33:48.385Z,100789.48
2023-10-02T22:36:17.659Z,100790.85
2023-10-02T22:38:46.351Z,100791.48
2023-10-02T22:41:14.939Z,100787.55
2023-10-02T22:43:42.955Z,100789.60
2023-10-02T22:46:12.641Z,100788.65
2023-10-02T22:48:40.800Z,100787.91
2023-10-02T22:51:09.323Z,100789.47
2023-10-02T22:53:38.355Z,100781.50
2023-10-02T22:56:06.400Z,100779.04
2023-10-02T22:58:34.404Z,100773.09
2023-10-02T23:01:05.546Z,100775.00
2023-10-02T23:03:35.015Z,100769.81
2023-10-02T23:06:07.048Z,100768.20
2023-10-02T23:08:35.000Z,100766.88
2023-10-02T23:11:07.907Z,100763.93
2023-10-02T23:13:35.847Z,100761.41
2023-10-02T23:16:03.829Z,100762.98
2023-10-02T23:18:36.542Z,100757.97
2023-10-02T23:21:04.725Z,100756.94
2023-10-02T23:23:32.995Z,100759.47
2023-10-02T23:26:00.857Z,100756.33
2023-10-02T23:28:28.677Z,100756.95
2023-10-02T23:30:56.716Z,100753.80
2023-10-02T23:33:24.875Z,100756.41
2023-10-02T23:35:54.133Z,100757.34
2023-10-02T23:38:22.170Z,100758.40
2023-10-02T23:40:50.004Z,100759.08
2023-10-02T23:43:20.661Z,100756.62
2023-10-02T23:45:52.402Z,100753.40
2023-10-02T23:48:21.875Z,100749.00
2023-10-02T23:50:50.714Z,100749.88
2023-10-02T23:53:25.876Z,100749.47
2023-10-02T23:56:04.734Z,100753.66
2023-10-02T23:58:33.556Z,100750.02
